Weyauwega, WI

4:27 PM CDT on September 02, 2014 (GMT -0500)
Wautoma | Change Station
CLOSE
Current Station
Airport
Location: Wautoma,
Elevation: 860 ft
Nearby Weather Stations

Elev 860 ft 44.04 °N, 89.30 °W | Updated 31 minutes ago

Light Rain
Light Rain
79 °F
Feels Like 79 °F
N
12
Wind Variable Wind from West

Today
High -- | Low -- °F
--% Chance of Precip.
Yesterday
High -- | Low -- °F
Precip. -- in
6:19 AM 7:30 PM
First Quarter, 55% visible
Pressure 29.88 in
Visibility 10.0 miles
Clouds Clear
Dew Point 57 °F
Humidity 46%
Rainfall 0.00 in
Snow Depth Not available.
UV 4 out of 12
Pollen 8.80 out of 12
Air Quality Not available.
Flu Activity Not available.
METAR KY50 022056Z AUTO 27010KT 10SM -RA CLR 26/14 A2989 RMK AO2 TSNO 50000 60000 T02610138 P0000 SLP117

More Conditions Fewer Conditions

Pressure 29.88 in
Visibility 10.0 miles
Clouds Clear
Dew Point 57 °F
Humidity 46%
Rainfall 0.00 in
Snow Depth Not available.
UV 4 out of 12
Pollen 8.80 out of 12
Air Quality Not available.
Flu Activity Not available.
METAR KY50 022056Z AUTO 27010KT 10SM -RA CLR 26/14 A2989 RMK AO2 TSNO 50000 60000 T02610138 P0000 SLP117

More Conditions Fewer Conditions

10-Day Weather Forecast

Almanac

Astronomy

Sep. 02, 2014 Rise Set
Actual Time 6:19 AM CDT 7:30 PM CDT
Civil Twilight 5:49 AM CDT 7:59 PM CDT
Nautical Twilight 5:14 AM CDT 8:35 PM CDT
Astronomical Twilight 4:36 AM CDT 9:13 PM CDT
Moon 2:19 PM CDT No Moon Set
Length of Visible Light 14h 10m
Length of Day
13h 10m
Tomorrow will be 2m 57s shorter.
First Quarter, 55% of the Moon is Illuminated
Today
First Quarter
Sep 8
Full
Sep 15
Last Quarter
Sep 24
New
Oct 1
First Quarter

Today's Extremes

State Highs State Lows

Community

WunderPhotos

Upload Photos

1,749,769 photos uploaded!

Nearby

Snow Depth

Station Depth Elevation
No new snow has been reported.

Earthquake Activity

City Distance Mag. Time & Date
No recent earthquake activity has been reported nearby.
Minimum magnitude displayed is 2.5.

Coastal Water Temperatures

Place Temperature
No Stations Reporting

Nearby Weather Stations